Time;durP1;ratioP1;P1;durP2;ratioP2;P2;SDS_P1;SDS_P2;PMS_P1;PMS_P2;Temp;Humidity;BMP_temperature;BMP_pressure;BME280_temperature;BME280_humidity;BME280_pressure;Samples;Min_cycle;Max_cycle;Signal;HPM_P1;HPM_P2
2024/01/29 00:00:34;;;;;;;77.65;41.17;;;;;;;3.75;84.61;103370.03;4988904;28;20124;-82
2024/01/29 00:03:01;;;;;;;72.55;40.40;;;;;;;3.72;84.11;103367.47;4972966;28;20305;-82
2024/01/29 00:05:28;;;;;;;77.60;41.42;;;;;;;3.70;83.50;103369.25;4988714;28;20050;-82
2024/01/29 00:07:54;;;;;;;75.22;39.85;;;;;;;3.35;83.83;103330.38;4989909;28;20081;-82
2024/01/29 00:10:22;;;;;;;71.70;39.05;;;;;;;3.10;83.94;103280.00;4988656;28;20046;-82
2024/01/29 00:12:49;;;;;;;73.13;41.20;;;;;;;3.33;83.92;103337.44;4989352;28;20050;-82
2024/01/29 00:15:15;;;;;;;75.38;40.92;;;;;;;3.40;84.81;103367.97;4973710;28;20133;-82
2024/01/29 00:17:42;;;;;;;84.38;42.85;;;;;;;3.39;85.31;103371.47;4972634;28;20054;-82
2024/01/29 00:20:09;;;;;;;79.43;40.92;;;;;;;3.06;85.61;103321.19;4988727;28;20555;-81
2024/01/29 00:22:37;;;;;;;87.40;44.60;;;;;;;3.39;85.86;103371.47;4988692;28;20309;-81
2024/01/29 00:25:04;;;;;;;78.45;40.10;;;;;;;3.42;85.74;103368.78;4972089;28;20559;-81
2024/01/29 00:27:30;;;;;;;71.25;38.22;;;;;;;3.26;84.86;103336.66;4989294;28;20386;-82
2024/01/29 00:29:58;;;;;;;65.72;36.50;;;;;;;3.36;84.65;103345.28;4972479;28;20046;-82
2024/01/29 00:32:25;;;;;;;72.55;37.08;;;;;;;3.09;83.95;103305.41;4972213;28;20090;-81
2024/01/29 00:34:53;;;;;;;70.00;37.83;;;;;;;3.15;83.36;103314.94;4988401;28;20050;-82
2024/01/29 00:37:22;;;;;;;70.75;36.40;;;;;;;2.96;83.48;103286.34;4990159;28;20070;-81
2024/01/29 00:39:52;;;;;;;64.18;36.33;;;;;;;3.43;83.54;103360.03;4987202;28;20042;-83
2024/01/29 00:42:19;;;;;;;63.80;35.60;;;;;;;3.43;83.25;103352.16;4970617;28;20057;-82
2024/01/29 00:44:48;;;;;;;66.32;36.28;;;;;;;3.18;83.78;103341.13;4970765;28;20050;-82
2024/01/29 00:47:15;;;;;;;64.57;34.83;;;;;;;3.07;84.45;103338.66;4988022;28;20047;-82
2024/01/29 00:49:42;;;;;;;62.75;35.53;;;;;;;3.20;84.01;103361.25;4986435;28;20054;-83
2024/01/29 00:52:09;;;;;;;64.03;33.75;;;;;;;3.00;84.44;103337.00;4968734;28;20058;-82
2024/01/29 00:54:35;;;;;;;61.78;35.33;;;;;;;3.16;84.32;103367.44;4987719;28;20539;-83
2024/01/29 00:57:03;;;;;;;59.17;33.80;;;;;;;2.91;84.71;103339.75;4987354;28;20057;-82
2024/01/29 00:59:29;;;;;;;62.60;35.15;;;;;;;2.88;84.40;103334.56;4987484;28;20050;-81
2024/01/29 01:01:56;;;;;;;69.10;38.25;;;;;;;2.67;84.94;103289.34;4991095;28;20042;-82
2024/01/29 01:04:23;;;;;;;74.72;38.72;;;;;;;2.87;84.78;103338.09;4988824;28;20050;-82
2024/01/29 01:06:50;;;;;;;63.50;35.88;;;;;;;2.95;85.26;103367.69;4971184;28;20042;-81
2024/01/29 01:09:18;;;;;;;79.57;40.42;;;;;;;2.58;85.79;103304.34;4971773;28;20089;-81
2024/01/29 01:11:45;;;;;;;69.95;39.65;;;;;;;3.01;85.49;103370.25;4989258;28;20046;-82
2024/01/29 01:14:12;;;;;;;70.65;37.13;;;;;;;2.87;85.19;103336.31;4987517;28;20043;-82
2024/01/29 01:16:39;;;;;;;72.40;39.42;;;;;;;3.02;85.58;103366.75;4988170;28;20054;-81
2024/01/29 01:19:06;;;;;;;71.05;36.63;;;;;;;2.94;84.88;103350.22;4989126;28;20104;-81
2024/01/29 01:21:32;;;;;;;71.60;37.90;;;;;;;3.02;85.06;103379.88;4988000;28;20062;-82
2024/01/29 01:23:59;;;;;;;73.53;38.83;;;;;;;2.97;85.56;103373.81;4987381;28;20054;-81
2024/01/29 01:26:26;;;;;;;67.35;38.35;;;;;;;2.98;85.47;103378.16;4988798;28;20058;-83
2024/01/29 01:28:53;;;;;;;71.28;38.72;;;;;;;2.75;84.93;103332.09;4971835;28;20698;-81
2024/01/29 01:31:20;;;;;;;70.80;37.60;;;;;;;2.91;85.39;103368.63;4987196;28;20058;-81
2024/01/29 01:33:46;;;;;;;73.25;37.88;;;;;;;2.99;84.73;103383.41;4988798;28;20050;-82
2024/01/29 01:36:13;;;;;;;69.60;37.50;;;;;;;2.80;85.31;103354.78;4987357;28;20660;-82
2024/01/29 01:38:40;;;;;;;63.63;35.25;;;;;;;2.57;85.09;103306.06;4972434;28;20359;-81
2024/01/29 01:41:06;;;;;;;61.22;35.50;;;;;;;2.79;84.75;103343.41;4983479;28;20049;-81
2024/01/29 01:43:33;;;;;;;59.22;34.20;;;;;;;2.97;85.27;103376.44;4996395;28;20054;-81
2024/01/29 01:46:03;;;;;;;63.63;36.05;;;;;;;2.90;84.52;103374.78;4976281;28;20181;-80
2024/01/29 01:48:33;;;;;;;59.70;34.50;;;;;;;2.94;84.80;103379.09;4968553;28;20050;-82
2024/01/29 01:51:00;;;;;;;59.10;32.97;;;;;;;2.88;84.90;103374.78;4969750;28;20050;-81
2024/01/29 01:53:30;;;;;;;61.53;35.15;;;;;;;2.93;84.66;103385.22;4986559;28;20050;-76
2024/01/29 01:55:58;;;;;;;62.28;34.65;;;;;;;2.97;84.21;103371.19;4987880;28;20389;-81
2024/01/29 01:58:27;;;;;;;64.30;34.65;;;;;;;2.94;84.06;103373.84;4971877;28;20046;-82
2024/01/29 02:00:57;;;;;;;64.50;35.83;;;;;;;2.77;84.46;103351.31;4989655;28;20072;-83
2024/01/29 02:03:28;;;;;;;59.22;34.80;;;;;;;2.75;84.49;103350.44;4967905;28;20059;-81
2024/01/29 02:05:55;;;;;;;65.63;35.17;;;;;;;2.75;84.43;103346.97;4968214;28;20113;-81
2024/01/29 02:08:23;;;;;;;60.30;33.78;;;;;;;2.52;84.66;103305.25;4968395;28;20047;-82
2024/01/29 02:10:52;;;;;;;60.95;34.83;;;;;;;2.78;84.19;103345.16;4952151;29;20055;-82
2024/01/29 02:13:20;;;;;;;65.57;34.55;;;;;;;2.78;84.38;103346.94;4953165;28;20482;-82
2024/01/29 02:15:46;;;;;;;53.88;32.78;;;;;;;2.68;84.45;103340.91;4952569;29;20047;-82
2024/01/29 02:18:13;;;;;;;56.97;32.63;;;;;;;2.68;84.80;103338.31;4952511;29;20055;-82
2024/01/29 02:20:40;;;;;;;53.53;30.88;;;;;;;2.27;84.45;103268.84;4952333;29;20063;-82
2024/01/29 02:23:07;;;;;;;56.42;31.85;;;;;;;2.76;84.91;103333.81;4952885;29;20106;-81
2024/01/29 02:25:34;;;;;;;60.47;33.25;;;;;;;2.70;84.46;103326.03;4952249;29;20919;-82
2024/01/29 02:28:01;;;;;;;57.45;32.58;;;;;;;2.85;84.24;103352.97;4968068;28;20043;-83
2024/01/29 02:30:28;;;;;;;63.70;32.28;;;;;;;2.81;84.09;103327.66;4968396;28;20493;-82
2024/01/29 02:32:54;;;;;;;59.78;31.95;;;;;;;2.69;84.22;103324.28;4967872;28;20057;-82
2024/01/29 02:35:22;;;;;;;60.90;31.58;;;;;;;2.19;83.66;103225.28;4952933;29;20051;-81
2024/01/29 02:37:49;;;;;;;53.58;29.98;;;;;;;2.68;83.75;103316.44;4967392;28;20536;-81
2024/01/29 02:40:16;;;;;;;54.53;30.98;;;;;;;2.69;83.57;103316.41;4967552;28;20520;-81
2024/01/29 02:42:43;;;;;;;53.75;31.00;;;;;;;2.30;83.80;103268.81;4967747;28;20059;-82
2024/01/29 02:45:10;;;;;;;54.95;31.15;;;;;;;2.40;83.85;103294.94;4951439;29;20043;-82
2024/01/29 02:47:36;;;;;;;54.22;31.30;;;;;;;2.57;84.40;103327.06;4951697;29;20051;-82
2024/01/29 02:50:04;;;;;;;50.83;30.23;;;;;;;2.27;83.68;103271.47;4952003;29;20542;-82
2024/01/29 02:52:30;;;;;;;49.88;29.92;;;;;;;2.54;83.61;103303.50;4951343;29;20051;-81
2024/01/29 02:54:57;;;;;;;52.20;30.35;;;;;;;2.34;83.39;103283.63;4953041;29;20047;-83
2024/01/29 02:57:24;;;;;;;64.72;32.22;;;;;;;2.30;84.15;103276.66;4967882;28;20047;-82
2024/01/29 02:59:51;;;;;;;56.40;30.55;;;;;;;2.61;83.49;103334.00;4951262;29;20541;-83
2024/01/29 03:02:19;;;;;;;51.17;29.73;;;;;;;2.59;83.85;103345.41;4967528;28;20074;-82
2024/01/29 03:04:46;;;;;;;53.05;31.30;;;;;;;2.61;84.04;103344.50;4967014;28;20055;-83
2024/01/29 03:07:15;;;;;;;46.30;28.55;;;;;;;2.32;83.94;103295.00;4951115;28;20102;-81
2024/01/29 03:09:42;;;;;;;54.67;29.15;;;;;;;2.40;83.88;103302.78;4967410;28;20061;-82
2024/01/29 03:12:09;;;;;;;47.00;28.02;;;;;;;2.27;82.75;103287.19;4969868;28;20415;-81
2024/01/29 03:14:36;;;;;;;50.95;28.25;;;;;;;2.24;82.92;103284.63;4953386;28;20536;-83
2024/01/29 03:17:03;;;;;;;54.08;28.63;;;;;;;2.31;83.30;103294.16;4950840;29;20560;-82
2024/01/29 03:19:29;;;;;;;48.90;28.02;;;;;;;2.04;83.55;103261.25;4951357;29;20057;-82
2024/01/29 03:21:56;;;;;;;49.65;28.38;;;;;;;1.93;82.90;103250.00;4951179;29;20211;-82
2024/01/29 03:24:23;;;;;;;48.60;28.73;;;;;;;2.41;82.73;103323.75;4950887;29;20047;-81
2024/01/29 03:26:50;;;;;;;47.17;27.60;;;;;;;2.13;82.67;103287.34;4967333;28;20070;-83
2024/01/29 03:29:16;;;;;;;49.70;29.38;;;;;;;2.28;82.65;103319.50;4951274;29;20165;-82
2024/01/29 03:31:43;;;;;;;49.85;28.98;;;;;;;2.18;83.83;103321.38;4951848;29;20062;-82
2024/01/29 03:34:10;;;;;;;45.58;27.02;;;;;;;2.07;83.46;103287.41;4951975;28;20051;-82
2024/01/29 03:36:36;;;;;;;47.13;27.05;;;;;;;1.78;82.61;103237.94;4950666;28;20047;-81
2024/01/29 03:39:03;;;;;;;48.30;27.58;;;;;;;2.13;83.47;103321.41;4950684;29;20152;-82
2024/01/29 03:41:30;;;;;;;47.65;28.15;;;;;;;1.86;83.28;103275.41;4950985;29;20615;-82
2024/01/29 03:43:58;;;;;;;43.57;25.80;;;;;;;2.12;83.33;103316.22;4951087;29;20065;-83
2024/01/29 03:46:25;;;;;;;43.88;27.08;;;;;;;1.69;82.88;103251.97;4950780;29;20589;-81
2024/01/29 03:48:52;;;;;;;50.75;28.65;;;;;;;1.90;83.56;103284.09;4952044;29;20423;-84
2024/01/29 03:51:19;;;;;;;51.63;28.57;;;;;;;1.48;83.79;103221.66;4952450;29;20150;-82
2024/01/29 03:53:45;;;;;;;49.67;28.63;;;;;;;2.01;83.79;103297.09;4950538;29;20063;-82
2024/01/29 03:56:12;;;;;;;52.67;29.15;;;;;;;1.42;83.35;103184.19;4950167;29;20047;-82
2024/01/29 03:58:39;;;;;;;59.07;32.73;;;;;;;1.45;83.89;103190.22;4950438;29;20051;-82
2024/01/29 04:01:06;;;;;;;59.27;32.57;;;;;;;1.54;83.87;103217.22;4950651;29;20054;-81
2024/01/29 04:03:33;;;;;;;59.47;32.22;;;;;;;1.98;84.82;103289.28;4968164;28;20438;-81
2024/01/29 04:06:00;;;;;;;59.93;33.80;;;;;;;1.91;84.80;103273.59;4968084;28;20500;-81
2024/01/29 04:08:27;;;;;;;64.70;34.10;;;;;;;2.01;84.71;103291.84;4967297;28;20075;-82
2024/01/29 04:10:53;;;;;;;55.53;33.53;;;;;;;1.65;84.23;103224.09;4969496;28;20051;-81
2024/01/29 04:13:20;;;;;;;55.70;32.80;;;;;;;1.89;84.91;103269.25;4969612;28;20067;-82
2024/01/29 04:15:47;;;;;;;59.00;32.90;;;;;;;2.04;85.00;103305.81;4970021;28;20468;-82
2024/01/29 04:18:13;;;;;;;57.33;32.65;;;;;;;1.95;85.19;103294.53;4969617;28;20465;-81
2024/01/29 04:20:40;;;;;;;55.60;31.80;;;;;;;1.54;85.36;103235.56;4985427;28;20054;-82
2024/01/29 04:23:08;;;;;;;52.23;31.57;;;;;;;1.49;85.05;103220.75;4985673;28;20059;-82
2024/01/29 04:25:35;;;;;;;64.78;34.03;;;;;;;1.68;85.29;103254.63;4953010;28;20051;-81
2024/01/29 04:28:02;;;;;;;58.72;32.33;;;;;;;1.81;85.69;103278.94;4965648;28;20405;-82
2024/01/29 04:30:29;;;;;;;56.05;31.50;;;;;;;1.79;86.07;103286.81;4979313;28;20090;-82
2024/01/29 04:32:55;;;;;;;54.47;31.48;;;;;;;1.69;86.07;103256.34;4968980;28;20570;-84
2024/01/29 04:35:22;;;;;;;48.53;30.35;;;;;;;1.43;85.30;103222.53;4969851;28;20250;-82
2024/01/29 04:37:49;;;;;;;52.35;29.05;;;;;;;1.93;84.60;103292.78;4952294;28;20065;-83
2024/01/29 04:40:16;;;;;;;47.97;29.07;;;;;;;1.93;84.01;103298.03;4951249;29;20138;-82
2024/01/29 04:42:42;;;;;;;52.50;29.38;;;;;;;1.92;83.91;103304.16;4965758;28;20057;-82
2024/01/29 04:45:10;;;;;;;50.40;29.65;;;;;;;1.62;84.16;103238.97;4965753;28;20142;-82
2024/01/29 04:47:36;;;;;;;52.45;29.83;;;;;;;0.95;83.29;103112.22;4950976;28;20047;-81
2024/01/29 04:50:03;;;;;;;51.85;30.30;;;;;;;1.80;83.86;103272.84;4965219;28;20486;-81
2024/01/29 04:52:30;;;;;;;52.10;29.20;;;;;;;1.80;83.67;103275.47;4965251;28;20155;-82
2024/01/29 04:54:57;;;;;;;49.00;29.40;;;;;;;1.93;83.71;103307.66;4976745;28;20047;-83
2024/01/29 04:57:23;;;;;;;44.30;27.73;;;;;;;1.74;83.83;103274.66;4984823;28;20242;-81
2024/01/29 04:59:50;;;;;;;48.60;28.83;;;;;;;1.66;83.81;103261.63;4969674;28;20046;-82
2024/01/29 05:02:17;;;;;;;45.95;26.80;;;;;;;1.96;83.52;103306.75;4968823;28;20050;-82
2024/01/29 05:04:43;;;;;;;47.08;27.02;;;;;;;1.85;83.09;103312.97;4968657;28;20373;-82
2024/01/29 05:07:10;;;;;;;52.10;28.53;;;;;;;1.68;83.89;103281.69;4957078;28;20050;-82
2024/01/29 05:09:37;;;;;;;50.95;29.67;;;;;;;1.02;83.56;103184.50;4975155;28;20046;-80
2024/01/29 05:12:05;;;;;;;54.03;30.65;;;;;;;1.29;83.73;103238.38;4968265;28;20054;-81
2024/01/29 05:14:32;;;;;;;54.95;32.50;;;;;;;1.62;84.34;103283.47;4967806;28;20108;-82
2024/01/29 05:16:58;;;;;;;53.67;29.23;;;;;;;1.11;84.00;103209.72;4968434;28;20057;-82
2024/01/29 05:19:25;;;;;;;51.97;29.63;;;;;;;1.28;83.81;103245.34;4969645;28;20577;-82
2024/01/29 05:21:52;;;;;;;49.50;28.70;;;;;;;1.05;83.33;103198.44;4968109;28;20448;-83
2024/01/29 05:24:19;;;;;;;53.37;29.57;;;;;;;1.33;83.72;103247.06;4962220;28;20125;-81
2024/01/29 05:26:45;;;;;;;53.33;29.43;;;;;;;1.68;84.02;103322.72;4965318;28;20059;-81
2024/01/29 05:29:12;;;;;;;57.70;29.77;;;;;;;1.59;83.91;103296.59;4967711;28;20094;-82
2024/01/29 05:31:39;;;;;;;54.67;29.10;;;;;;;0.63;84.08;103148.19;4985053;28;20058;-82
2024/01/29 05:34:05;;;;;;;56.30;31.50;;;;;;;1.09;84.18;103242.88;4969457;28;20412;-82
2024/01/29 05:36:32;;;;;;;53.03;28.57;;;;;;;1.42;84.59;103292.38;4963047;28;20051;-82
2024/01/29 05:38:59;;;;;;;58.80;31.40;;;;;;;1.56;84.34;103320.22;4965205;28;20082;-82
2024/01/29 05:41:26;;;;;;;58.77;30.53;;;;;;;1.55;84.56;103336.78;4964824;28;20066;-82
2024/01/29 05:43:55;;;;;;;55.63;29.47;;;;;;;1.36;85.24;103300.28;4949110;29;20055;-82
2024/01/29 05:46:22;;;;;;;56.00;30.93;;;;;;;1.39;85.03;103313.34;4948646;29;20055;-81
2024/01/29 05:48:49;;;;;;;54.50;30.90;;;;;;;1.49;84.38;103286.19;4949011;29;20420;-81
2024/01/29 05:51:15;;;;;;;59.90;30.20;;;;;;;1.19;84.32;103261.13;4949105;29;20055;-81
2024/01/29 05:53:42;;;;;;;55.83;30.73;;;;;;;1.50;84.74;103336.81;4949533;29;20047;-82
2024/01/29 05:56:09;;;;;;;60.17;32.57;;;;;;;1.46;85.82;103337.72;4954468;28;20044;-81
2024/01/29 05:58:36;;;;;;;57.03;31.57;;;;;;;1.42;85.58;103320.28;4966401;28;20588;-80
2024/01/29 06:01:03;;;;;;;60.07;31.20;;;;;;;1.43;84.77;103311.56;4966748;28;20065;-80
2024/01/29 06:03:30;;;;;;;60.30;31.33;;;;;;;0.99;84.91;103242.94;4964406;28;20087;-82
2024/01/29 06:05:57;;;;;;;64.80;32.93;;;;;;;1.46;84.83;103322.88;4950343;28;20492;-82
2024/01/29 06:08:24;;;;;;;67.07;32.20;;;;;;;1.56;85.12;103343.78;4965070;28;20140;-82
2024/01/29 06:10:53;;;;;;;58.57;32.30;;;;;;;1.57;84.98;103342.88;4956399;28;20497;-83
2024/01/29 06:13:21;;;;;;;58.47;32.63;;;;;;;1.49;85.87;103335.09;4946746;29;20273;-81
2024/01/29 06:15:48;;;;;;;66.40;32.97;;;;;;;0.66;85.43;103207.44;4941692;29;20062;-83
2024/01/29 06:18:15;;;;;;;66.23;35.13;;;;;;;1.16;86.00;103294.28;4947092;29;20054;-82
2024/01/29 06:20:41;;;;;;;55.77;32.43;;;;;;;1.06;86.51;103291.72;4954212;28;20055;-82
2024/01/29 06:23:09;;;;;;;61.07;31.17;;;;;;;1.46;86.21;103351.69;4953251;28;20043;-82
2024/01/29 06:25:36;;;;;;;60.13;31.00;;;;;;;1.47;85.01;103340.31;4952587;28;20528;-82
2024/01/29 06:28:03;;;;;;;57.50;29.77;;;;;;;1.01;84.53;103269.97;4957428;28;20058;-80
2024/01/29 06:30:30;;;;;;;53.57;31.13;;;;;;;1.33;84.46;103322.97;4963303;28;20087;-81
2024/01/29 06:32:57;;;;;;;56.87;29.50;;;;;;;1.28;84.63;103336.94;4956874;28;20142;-82
2024/01/29 06:35:24;;;;;;;58.20;29.93;;;;;;;1.03;84.92;103302.22;4963870;28;20046;-83
2024/01/29 06:37:50;;;;;;;59.20;31.00;;;;;;;1.27;85.20;103352.69;4963442;28;20039;-81
2024/01/29 06:40:17;;;;;;;60.80;28.60;;;;;;;1.21;85.78;103339.63;4966281;28;20122;-81
2024/01/29 06:42:44;;;;;;;70.20;31.60;;;;;;;1.30;86.51;103352.66;4962262;28;20073;-81
2024/01/29 06:45:10;;;;;;;60.10;30.83;;;;;;;1.25;86.35;103351.81;4951449;29;20047;-82
2024/01/29 06:47:37;;;;;;;66.10;31.50;;;;;;;1.23;86.54;103346.56;4952141;29;20043;-83
2024/01/29 06:50:04;;;;;;;65.37;31.93;;;;;;;1.08;87.76;103330.13;4959403;28;20043;-81
2024/01/29 06:52:31;;;;;;;65.47;32.53;;;;;;;1.15;87.88;103337.06;4960316;28;20047;-83
2024/01/29 06:55:00;;;;;;;67.47;33.13;;;;;;;1.19;87.89;103333.53;4965837;28;20490;-82
2024/01/29 06:57:27;;;;;;;61.63;31.73;;;;;;;1.27;87.42;103350.06;4959984;28;20057;-81
2024/01/29 06:59:54;;;;;;;72.30;32.70;;;;;;;1.23;87.07;103350.94;4969318;28;20425;-81
2024/01/29 07:02:21;;;;;;;62.03;29.63;;;;;;;0.87;87.04;103294.47;4966124;28;20055;-82
2024/01/29 07:04:48;;;;;;;62.60;31.13;;;;;;;1.22;86.84;103357.06;4952436;28;20058;-83
2024/01/29 07:07:15;;;;;;;67.20;33.97;;;;;;;1.19;87.61;103359.69;4958356;28;20044;-83
2024/01/29 07:09:42;;;;;;;73.93;34.33;;;;;;;1.22;87.80;103354.47;4955635;28;20051;-82
2024/01/29 07:12:08;;;;;;;71.03;31.07;;;;;;;0.96;87.10;103304.88;4967487;28;20058;-84
2024/01/29 07:14:35;;;;;;;71.60;33.50;;;;;;;1.20;86.57;103340.50;4951573;28;20055;-83
2024/01/29 07:17:07;;;;;;;76.75;33.63;;;;;;;1.11;86.84;103343.16;4955611;28;20043;-84
2024/01/29 07:19:34;;;;;;;76.17;32.87;;;;;;;0.57;87.51;103251.91;4950204;29;20051;-82
2024/01/29 07:22:08;;;;;;;69.53;30.67;;;;;;;1.26;87.16;103358.78;4950955;29;20142;-83
2024/01/29 07:24:35;;;;;;;77.73;32.07;;;;;;;0.80;87.85;103288.38;4965911;28;20075;-83
2024/01/29 07:27:03;;;;;;;68.90;32.53;;;;;;;1.20;87.96;103357.06;4950508;29;20432;-83
2024/01/29 07:29:32;;;;;;;72.47;34.90;;;;;;;1.27;88.31;103353.53;4956815;28;20433;-83
2024/01/29 07:31:59;;;;;;;70.30;36.17;;;;;;;0.80;87.79;103273.59;4957752;28;20071;-83
2024/01/29 07:34:26;;;;;;;78.77;35.73;;;;;;;1.20;87.69;103330.03;4956083;28;20359;-83
2024/01/29 07:36:53;;;;;;;63.63;32.43;;;;;;;1.19;87.94;103328.28;4950990;28;20049;-84
2024/01/29 07:39:20;;;;;;;72.53;34.83;;;;;;;1.30;87.71;103346.56;4965550;28;20362;-83
2024/01/29 07:41:47;;;;;;;64.23;32.53;;;;;;;1.31;87.91;103328.25;4959507;28;20055;-83
2024/01/29 07:44:13;;;;;;;70.03;34.63;;;;;;;0.99;87.41;103289.16;4954850;28;20047;-82
2024/01/29 07:46:40;;;;;;;79.93;35.83;;;;;;;1.45;87.30;103360.41;4949572;29;20488;-83
2024/01/29 07:49:07;;;;;;;76.83;34.93;;;;;;;1.13;87.74;103307.41;4956270;28;20039;-83
2024/01/29 07:51:35;;;;;;;65.47;32.10;;;;;;;1.31;86.63;103322.09;4955610;28;20505;-83
2024/01/29 07:54:02;;;;;;;63.73;31.80;;;;;;;1.09;86.12;103280.38;4957369;28;20494;-82
2024/01/29 07:56:28;;;;;;;67.07;30.77;;;;;;;1.16;85.53;103294.28;4943453;29;20054;-84
2024/01/29 07:58:55;;;;;;;64.90;33.90;;;;;;;1.44;85.60;103363.91;4957698;28;20044;-82
2024/01/29 08:01:22;;;;;;;71.23;34.37;;;;;;;1.25;86.71;103336.97;4950292;28;20082;-81
2024/01/29 08:03:49;;;;;;;70.83;33.20;;;;;;;1.30;86.21;103321.25;4988418;28;20073;-82
2024/01/29 08:06:17;;;;;;;74.63;35.43;;;;;;;1.13;86.91;103286.47;4985937;28;20624;-82
2024/01/29 08:08:43;;;;;;;65.00;33.87;;;;;;;1.45;86.21;103335.97;4982750;28;20047;-82
2024/01/29 08:11:10;;;;;;;74.10;33.72;;;;;;;1.33;86.38;103315.13;4985010;28;20485;-82
2024/01/29 08:13:38;;;;;;;73.50;34.07;;;;;;;1.47;85.59;103353.41;4988532;28;20046;-81
2024/01/29 08:16:05;;;;;;;72.97;33.83;;;;;;;1.43;85.64;103356.94;4987401;28;20046;-81
2024/01/29 08:18:32;;;;;;;63.53;32.23;;;;;;;1.42;86.10;103342.09;4978409;28;20408;-82
2024/01/29 08:20:59;;;;;;;68.37;31.77;;;;;;;1.41;85.96;103339.50;4985171;28;20409;-82
2024/01/29 08:27:07;;;;;;;73.53;33.03;;;;;;;1.64;85.09;103357.66;4987187;28;20558;-83
2024/01/29 08:29:34;;;;;;;63.50;31.63;;;;;;;1.10;84.98;103276.03;4979955;28;20054;-82
2024/01/29 08:32:00;;;;;;;71.87;34.77;;;;;;;1.68;85.22;103360.25;4984173;28;20254;-82
2024/01/29 08:34:29;;;;;;;72.87;33.40;;;;;;;1.60;84.79;103359.44;4984577;28;20043;-82
2024/01/29 08:36:57;;;;;;;67.10;34.80;;;;;;;1.57;84.47;103340.25;4986204;28;20050;-83
2024/01/29 08:39:24;;;;;;;67.67;34.17;;;;;;;1.73;84.88;103368.06;4983872;28;20038;-82
2024/01/29 08:41:52;;;;;;;61.65;32.17;;;;;;;1.70;83.99;103362.88;4984723;28;20098;-82
2024/01/29 08:44:19;;;;;;;61.30;31.47;;;;;;;0.94;83.55;103229.03;4981567;28;20400;-82
2024/01/29 08:46:46;;;;;;;58.53;30.73;;;;;;;1.71;83.23;103364.59;4987572;28;20171;-82
2024/01/29 08:49:15;;;;;;;55.63;30.53;;;;;;;1.66;83.05;103342.81;4985848;28;20086;-82
2024/01/29 08:51:42;;;;;;;57.50;29.77;;;;;;;1.85;83.17;103370.59;4987459;28;20061;-82
2024/01/29 08:54:09;;;;;;;52.67;30.80;;;;;;;1.88;83.09;103357.47;4984242;28;20117;-82
2024/01/29 08:56:38;;;;;;;55.30;29.70;;;;;;;1.92;82.51;103353.09;4970828;28;20065;-82
2024/01/29 08:59:06;;;;;;;53.67;28.33;;;;;;;1.71;81.82;103317.44;4978960;28;20060;-82
2024/01/29 09:01:33;;;;;;;55.77;30.67;;;;;;;1.72;81.55;103308.69;4984052;28;20058;-84
2024/01/29 09:04:00;;;;;;;51.30;29.55;;;;;;;1.91;81.32;103343.47;4964468;28;20621;-83
2024/01/29 09:06:27;;;;;;;56.75;31.02;;;;;;;1.86;82.15;103337.41;4985734;28;20042;-79
2024/01/29 09:08:54;;;;;;;53.63;29.37;;;;;;;2.21;82.55;103388.63;4985926;28;20048;-82
2024/01/29 09:11:21;;;;;;;59.77;30.03;;;;;;;1.80;82.23;103300.81;4983837;28;20223;-82
2024/01/29 09:13:48;;;;;;;67.60;33.70;;;;;;;2.13;81.96;103352.00;4986834;28;20138;-80
2024/01/29 09:16:15;;;;;;;67.85;33.42;;;;;;;2.33;81.94;103375.38;4984976;28;20139;-80
2024/01/29 09:18:41;;;;;;;66.85;34.38;;;;;;;2.26;81.84;103356.25;4987299;28;20592;-80
2024/01/29 09:21:09;;;;;;;70.57;35.63;;;;;;;2.45;80.93;103382.25;4984413;28;20131;-82
2024/01/29 09:23:38;;;;;;;69.60;32.45;;;;;;;2.51;80.80;103392.69;4986677;28;20054;-82
2024/01/29 09:26:06;;;;;;;63.13;32.57;;;;;;;2.46;80.37;103377.00;4986052;28;20113;-83
2024/01/29 09:28:34;;;;;;;63.20;33.88;;;;;;;2.46;80.53;103376.16;4976390;28;20047;-82
2024/01/29 09:31:01;;;;;;;71.75;34.88;;;;;;;2.43;81.19;103358.69;4982100;28;20046;-82
2024/01/29 09:33:28;;;;;;;72.13;34.85;;;;;;;2.62;81.65;103375.09;4980693;28;20039;-82
2024/01/29 09:35:55;;;;;;;72.75;36.40;;;;;;;2.58;80.20;103336.69;4986683;28;20309;-82
2024/01/29 09:38:23;;;;;;;74.43;37.00;;;;;;;2.73;79.97;103370.59;4986770;28;20420;-84
2024/01/29 09:40:49;;;;;;;83.97;39.15;;;;;;;2.45;80.16;103322.84;4980109;28;20524;-82
2024/01/29 09:43:20;;;;;;;87.28;40.05;;;;;;;2.84;80.23;103394.09;4981974;28;20046;-81
2024/01/29 09:45:51;;;;;;;81.95;41.17;;;;;;;2.60;80.43;103347.13;4971172;28;20053;-82
2024/01/29 09:48:18;;;;;;;80.43;39.85;;;;;;;2.21;80.46;103295.16;4975852;28;20489;-82
2024/01/29 09:50:47;;;;;;;88.53;41.42;;;;;;;2.86;81.21;103399.31;4969159;28;20133;-82
2024/01/29 09:53:19;;;;;;;83.97;38.83;;;;;;;2.97;80.33;103410.53;4974832;28;20038;-82
2024/01/29 09:55:46;;;;;;;92.15;41.90;;;;;;;2.92;80.72;103391.38;4986459;28;20133;-82
2024/01/29 09:58:13;;;;;;;89.28;42.40;;;;;;;3.05;80.11;103403.44;4984775;28;20052;-83
2024/01/29 10:00:40;;;;;;;88.55;42.15;;;;;;;3.24;80.13;103403.22;4981237;28;20038;-82
2024/01/29 10:03:14;;;;;;;83.72;41.85;;;;;;;3.31;79.75;103407.50;4967028;28;20074;-81
2024/01/29 10:05:43;;;;;;;79.82;40.75;;;;;;;3.41;79.54;103406.47;4984339;28;20054;-81
2024/01/29 10:08:11;;;;;;;92.07;44.13;;;;;;;3.08;79.14;103339.53;4985673;28;20125;-81
2024/01/29 10:10:38;;;;;;;93.78;43.42;;;;;;;3.45;79.04;103387.16;4985567;28;20054;-82
2024/01/29 10:13:07;;;;;;;79.07;42.25;;;;;;;3.55;78.84;103386.13;4983366;28;20039;-82
2024/01/29 10:15:34;;;;;;;72.35;39.03;;;;;;;3.33;78.97;103345.31;4990333;28;20050;-81
2024/01/29 10:18:01;;;;;;;78.65;40.78;;;;;;;3.73;77.64;103406.00;4973577;28;20042;-82
2024/01/29 10:20:28;;;;;;;75.75;37.22;;;;;;;3.74;77.17;103410.38;4990639;28;20046;-81
2024/01/29 10:22:59;;;;;;;73.53;37.28;;;;;;;3.15;76.77;103309.69;4970328;28;20149;-82
2024/01/29 10:25:27;;;;;;;74.60;38.60;;;;;;;2.44;77.40;103186.50;4986199;28;20046;-81
2024/01/29 10:28:04;;;;;;;77.13;40.75;;;;;;;2.98;78.20;103312.53;4971423;28;20046;-81
2024/01/29 10:30:31;;;;;;;81.35;38.15;;;;;;;3.12;77.94;103339.47;4984868;28;20055;-80
2024/01/29 10:32:58;;;;;;;88.45;41.22;;;;;;;3.19;78.95;103349.00;4987420;28;20046;-80
2024/01/29 10:35:25;;;;;;;75.95;41.90;;;;;;;3.16;79.40;103345.56;4990577;28;20122;-81
2024/01/29 10:37:59;;;;;;;86.40;41.63;;;;;;;3.50;79.37;103390.59;4990089;28;20145;-81
2024/01/29 10:40:28;;;;;;;73.13;38.38;;;;;;;3.63;79.66;103397.38;4984245;28;20047;-81
2024/01/29 10:42:57;;;;;;;89.00;43.17;;;;;;;3.63;79.54;103397.38;4981491;28;20039;-80
2024/01/29 10:45:25;;;;;;;82.70;41.50;;;;;;;3.72;79.88;103395.53;4989431;28;20488;-81
2024/01/29 10:48:16;;;;;;;86.28;43.33;;;;;;;3.26;80.25;103297.28;4980558;28;20493;-81
2024/01/29 10:50:45;;;;;;;80.78;42.22;;;;;;;3.38;80.09;103304.97;4979254;28;20141;-80
2024/01/29 10:53:14;;;;;;;86.30;42.65;;;;;;;3.82;80.26;103366.44;4989807;28;20096;-81
2024/01/29 10:55:43;;;;;;;86.43;42.28;;;;;;;3.28;79.66;103231.63;4990131;28;20054;-81
2024/01/29 10:58:14;;;;;;;84.35;43.70;;;;;;;4.24;79.75;103373.59;4973826;28;20057;-82
2024/01/29 11:00:43;;;;;;;77.63;41.15;;;;;;;4.36;79.36;103373.38;4980829;28;20047;-80
2024/01/29 11:03:11;;;;;;;91.03;42.83;;;;;;;4.58;79.23;103376.47;4978347;28;20596;-80
2024/01/29 11:05:40;;;;;;;85.18;40.70;;;;;;;4.44;77.99;103329.41;4970605;28;20137;-80
2024/01/29 11:08:14;;;;;;;83.25;41.38;;;;;;;4.78;77.57;103362.03;4973137;28;20440;-80
2024/01/29 11:10:41;;;;;;;82.47;42.42;;;;;;;4.78;77.24;103364.66;4986819;28;20042;-80
2024/01/29 11:13:09;;;;;;;81.85;44.22;;;;;;;4.90;77.24;103360.03;4989879;28;20038;-82
2024/01/29 11:15:36;;;;;;;84.50;43.47;;;;;;;4.50;76.95;103307.34;4982669;28;20097;-81
2024/01/29 11:18:04;;;;;;;83.97;43.78;;;;;;;4.79;77.18;103355.91;4988590;28;20086;-81
2024/01/29 11:20:32;;;;;;;76.18;41.95;;;;;;;4.61;77.17;103325.53;4990418;28;20540;-79